Time;durP1;ratioP1;P1;durP2;ratioP2;P2;SDS_P1;SDS_P2;PMS_P1;PMS_P2;Temp;Humidity;BMP_temperature;BMP_pressure;BME280_temperature;BME280_humidity;BME280_pressure;Samples;Min_cycle;Max_cycle;Signal;HPM_P1;HPM_P2
2022/08/31 00:04:52;;;;;;;2.22;0.85;;;15.60;99.90;;;;;;5097238;28;20036;-65
2022/08/31 00:07:18;;;;;;;1.65;0.80;;;15.60;99.90;;;;;;5096936;28;20474;-65
2022/08/31 00:09:44;;;;;;;2.10;0.70;;;15.60;99.90;;;;;;5062073;28;20081;-65
2022/08/31 00:12:12;;;;;;;2.08;0.90;;;15.60;99.90;;;;;;5096909;28;20040;-65
2022/08/31 00:14:38;;;;;;;1.63;0.70;;;15.60;99.90;;;;;;5078750;28;20096;-65
2022/08/31 00:17:04;;;;;;;2.38;1.00;;;15.60;99.90;;;;;;5094780;28;20062;-65
2022/08/31 00:19:30;;;;;;;2.22;0.88;;;15.60;99.90;;;;;;5096989;28;20461;-65
2022/08/31 00:21:56;;;;;;;2.30;0.98;;;15.60;99.90;;;;;;5078604;28;20032;-65
2022/08/31 00:24:21;;;;;;;0.98;0.73;;;15.60;99.90;;;;;;5061836;28;20124;-65
2022/08/31 00:26:47;;;;;;;3.40;1.10;;;15.60;99.90;;;;;;5078397;28;20038;-65
2022/08/31 00:29:14;;;;;;;2.30;0.80;;;15.60;99.90;;;;;;5096555;28;20074;-65
2022/08/31 00:31:40;;;;;;;1.70;1.13;;;15.50;99.90;;;;;;5078354;28;20051;-65
2022/08/31 00:34:05;;;;;;;2.28;1.17;;;15.50;99.90;;;;;;5078653;28;20036;-65
2022/08/31 00:36:31;;;;;;;1.60;0.98;;;15.50;99.90;;;;;;5078244;28;20506;-65
2022/08/31 00:38:57;;;;;;;3.60;0.90;;;15.50;99.90;;;;;;5078144;28;20102;-65
2022/08/31 00:41:27;;;;;;;3.05;1.30;;;15.40;99.90;;;;;;5078130;28;20131;-65
2022/08/31 00:43:59;;;;;;;5.28;0.90;;;15.40;99.90;;;;;;5096620;28;20039;-65
2022/08/31 00:46:29;;;;;;;3.67;1.10;;;15.30;99.90;;;;;;5075926;28;20036;-65
2022/08/31 00:49:17;;;;;;;1.60;1.02;;;15.30;99.90;;;;;;5096249;28;20365;-65
2022/08/31 00:51:53;;;;;;;3.72;1.13;;;15.20;99.90;;;;;;5096111;28;20051;-65
2022/08/31 00:54:23;;;;;;;2.03;1.20;;;15.20;99.90;;;;;;5078330;28;20040;-65
2022/08/31 00:56:50;;;;;;;1.73;1.23;;;15.10;99.90;;;;;;5077935;28;20083;-65
2022/08/31 00:59:18;;;;;;;2.45;0.95;;;15.10;99.90;;;;;;5078240;28;20457;-65
2022/08/31 01:01:44;;;;;;;1.95;1.00;;;15.10;99.90;;;;;;5096019;28;20268;-65
2022/08/31 01:04:11;;;;;;;3.55;1.33;;;15.00;99.90;;;;;;5061374;28;20377;-65
2022/08/31 01:06:38;;;;;;;2.83;0.90;;;15.00;99.90;;;;;;5077535;28;20067;-65
2022/08/31 01:09:06;;;;;;;3.53;1.33;;;14.90;99.90;;;;;;5061374;28;20389;-65
2022/08/31 01:11:33;;;;;;;3.78;1.27;;;14.80;99.90;;;;;;5077546;28;20211;-65
2022/08/31 01:14:00;;;;;;;2.08;1.10;;;14.80;99.90;;;;;;5077592;28;20502;-65
2022/08/31 01:16:33;;;;;;;2.90;1.48;;;14.70;99.90;;;;;;5093610;28;20036;-65
2022/08/31 01:19:04;;;;;;;2.00;1.25;;;14.70;99.90;;;;;;5060985;28;20040;-65
2022/08/31 01:21:54;;;;;;;3.30;1.35;;;14.70;99.90;;;;;;5077471;28;20050;-65
2022/08/31 01:24:20;;;;;;;3.67;1.60;;;14.60;99.90;;;;;;5077503;28;20065;-65
2022/08/31 01:26:47;;;;;;;1.83;1.15;;;14.60;99.90;;;;;;5077483;28;20101;-65
2022/08/31 01:29:13;;;;;;;1.88;1.02;;;14.60;99.90;;;;;;5077625;28;20081;-65
2022/08/31 01:31:45;;;;;;;2.30;1.20;;;14.60;99.90;;;;;;5060448;28;20585;-65
2022/08/31 01:34:11;;;;;;;3.55;1.00;;;14.60;99.90;;;;;;5095227;28;20032;-65
2022/08/31 01:36:39;;;;;;;2.35;0.90;;;14.60;99.90;;;;;;5060592;28;20032;-65
2022/08/31 01:39:08;;;;;;;2.00;1.20;;;14.50;99.90;;;;;;5095442;28;20062;-65
2022/08/31 01:41:34;;;;;;;5.28;1.10;;;14.50;99.90;;;;;;5060421;28;20476;-65
2022/08/31 01:44:00;;;;;;;3.25;1.20;;;14.50;99.90;;;;;;5076887;28;20036;-65
2022/08/31 01:46:26;;;;;;;1.75;1.10;;;14.50;99.90;;;;;;5074962;28;20131;-66
2022/08/31 01:48:52;;;;;;;2.55;1.08;;;14.40;99.90;;;;;;5077131;28;20522;-65
2022/08/31 01:51:20;;;;;;;1.92;0.98;;;14.40;99.90;;;;;;5076782;28;20063;-65
2022/08/31 01:53:48;;;;;;;1.80;0.88;;;14.40;99.90;;;;;;5076843;28;20097;-65
2022/08/31 01:56:18;;;;;;;2.35;0.80;;;14.30;99.90;;;;;;5060208;28;20461;-65
2022/08/31 01:58:44;;;;;;;2.60;0.93;;;14.30;99.90;;;;;;5076654;28;20493;-65
2022/08/31 02:01:10;;;;;;;2.72;1.00;;;14.30;99.90;;;;;;5076946;28;20036;-65
2022/08/31 02:03:36;;;;;;;2.42;1.00;;;14.30;99.90;;;;;;5076664;28;20061;-65
2022/08/31 02:06:11;;;;;;;2.80;1.05;;;14.20;99.90;;;;;;5076511;28;20043;-65
2022/08/31 02:08:38;;;;;;;1.65;0.95;;;14.20;99.90;;;;;;5094737;28;20044;-65
2022/08/31 02:11:05;;;;;;;5.00;1.10;;;14.10;99.90;;;;;;5076419;28;20056;-65
2022/08/31 02:13:33;;;;;;;2.33;1.10;;;14.10;99.90;;;;;;5076572;28;20047;-65
2022/08/31 02:15:59;;;;;;;3.53;0.95;;;14.10;99.90;;;;;;5074582;28;20149;-65
2022/08/31 02:18:25;;;;;;;1.83;0.90;;;14.00;99.90;;;;;;5076475;28;20036;-65
2022/08/31 02:20:51;;;;;;;2.05;1.00;;;14.00;99.90;;;;;;5059689;28;20127;-65
2022/08/31 02:23:17;;;;;;;4.38;1.00;;;14.00;99.90;;;;;;5076106;28;20047;-65
2022/08/31 02:25:42;;;;;;;2.00;1.30;;;13.90;99.90;;;;;;5059337;28;20454;-65
2022/08/31 02:28:11;;;;;;;3.65;1.02;;;13.90;99.90;;;;;;5094248;28;20384;-65
2022/08/31 02:30:37;;;;;;;2.20;0.88;;;13.90;99.90;;;;;;5094343;28;20040;-65
2022/08/31 02:33:03;;;;;;;2.17;0.70;;;13.80;99.90;;;;;;5094425;28;20113;-65
2022/08/31 02:35:29;;;;;;;1.65;0.90;;;13.80;99.90;;;;;;5076070;28;20051;-65
2022/08/31 02:37:55;;;;;;;2.95;1.02;;;13.70;99.90;;;;;;5059306;28;20040;-65
2022/08/31 02:40:21;;;;;;;1.80;0.90;;;13.60;99.90;;;;;;5094103;28;20044;-65
2022/08/31 02:42:47;;;;;;;5.35;1.05;;;13.50;99.90;;;;;;5059248;28;20518;-65
2022/08/31 02:45:12;;;;;;;2.08;0.90;;;13.50;99.90;;;;;;5093445;28;20048;-65
2022/08/31 02:47:38;;;;;;;1.42;0.80;;;13.40;99.90;;;;;;5058001;28;20040;-65
2022/08/31 02:50:06;;;;;;;1.45;0.80;;;13.40;99.90;;;;;;5075788;28;20040;-65
2022/08/31 02:52:31;;;;;;;2.22;0.85;;;13.30;99.90;;;;;;5075746;28;20036;-65
2022/08/31 02:54:57;;;;;;;1.75;1.00;;;13.30;99.90;;;;;;5093761;28;20048;-65
2022/08/31 02:57:23;;;;;;;2.90;0.75;;;13.20;99.90;;;;;;5059021;28;20075;-65
2022/08/31 02:59:49;;;;;;;1.75;0.80;;;13.10;99.90;;;;;;5093972;28;20036;-65
2022/08/31 03:02:16;;;;;;;2.30;0.98;;;13.10;99.90;;;;;;5093728;28;20047;-65
2022/08/31 03:04:42;;;;;;;2.45;0.90;;;13.00;99.90;;;;;;5059048;28;20074;-65
2022/08/31 03:07:08;;;;;;;1.25;0.80;;;13.00;99.90;;;;;;5072128;28;20055;-65
2022/08/31 03:09:34;;;;;;;2.03;0.70;;;12.90;99.90;;;;;;5073151;28;20048;-65
2022/08/31 03:12:02;;;;;;;2.45;0.90;;;12.90;99.90;;;;;;5055784;28;20041;-65
2022/08/31 03:14:28;;;;;;;1.77;0.98;;;12.80;99.90;;;;;;5071994;28;20040;-65
2022/08/31 03:16:54;;;;;;;1.17;0.68;;;12.80;99.90;;;;;;5069914;28;20113;-65
2022/08/31 03:19:20;;;;;;;2.50;1.02;;;12.70;99.90;;;;;;5055209;28;20606;-65
2022/08/31 03:21:46;;;;;;;3.75;0.90;;;12.70;99.90;;;;;;5072204;28;20047;-65
2022/08/31 03:24:13;;;;;;;1.30;0.70;;;12.60;99.90;;;;;;5071784;28;20651;-65
2022/08/31 03:26:39;;;;;;;2.80;1.05;;;12.60;99.90;;;;;;5072031;28;20042;-65
2022/08/31 03:29:06;;;;;;;2.78;0.98;;;12.50;99.90;;;;;;5071766;28;20653;-65
2022/08/31 03:31:31;;;;;;;2.83;0.70;;;12.50;99.90;;;;;;5071710;28;20036;-64
2022/08/31 03:33:58;;;;;;;1.63;0.90;;;12.50;99.90;;;;;;5071840;28;20098;-65
2022/08/31 03:36:24;;;;;;;3.78;1.05;;;12.40;99.90;;;;;;5072809;28;20039;-65
2022/08/31 03:38:49;;;;;;;1.23;0.73;;;12.40;99.90;;;;;;5072847;28;20044;-64
2022/08/31 03:41:20;;;;;;;1.20;0.90;;;12.30;99.90;;;;;;5071673;28;20032;-65
2022/08/31 03:43:46;;;;;;;1.50;0.93;;;12.30;99.90;;;;;;5071922;28;20120;-64
2022/08/31 03:46:12;;;;;;;2.78;1.70;;;12.20;99.90;;;;;;5069304;28;20477;-65
2022/08/31 03:48:38;;;;;;;1.45;0.90;;;12.20;99.90;;;;;;5071508;28;20040;-65
2022/08/31 03:51:04;;;;;;;2.58;0.93;;;12.20;99.90;;;;;;5072788;28;20043;-65
2022/08/31 03:53:30;;;;;;;2.30;1.10;;;12.10;99.90;;;;;;5072697;28;20041;-64
2022/08/31 03:56:00;;;;;;;1.58;1.10;;;12.10;99.90;;;;;;5071777;28;20033;-65
2022/08/31 03:58:30;;;;;;;1.70;0.90;;;12.10;99.90;;;;;;5073001;28;20055;-65
2022/08/31 04:00:56;;;;;;;1.55;0.82;;;12.00;99.90;;;;;;5071470;28;20512;-65
2022/08/31 04:03:22;;;;;;;3.30;1.10;;;12.00;99.90;;;;;;5071736;28;20040;-65
2022/08/31 04:05:48;;;;;;;2.47;1.02;;;12.00;99.90;;;;;;5071295;28;20048;-65
2022/08/31 04:08:16;;;;;;;2.65;0.95;;;12.00;99.90;;;;;;5071276;28;20056;-65
2022/08/31 04:10:45;;;;;;;1.95;1.10;;;12.00;99.90;;;;;;5071368;28;20495;-65
2022/08/31 04:13:11;;;;;;;1.48;1.00;;;11.90;99.90;;;;;;5071632;28;20033;-65
2022/08/31 04:15:38;;;;;;;3.08;1.08;;;11.90;99.90;;;;;;5052508;28;20880;-65
2022/08/31 04:18:04;;;;;;;1.42;1.00;;;11.80;99.90;;;;;;5072659;28;20044;-64
2022/08/31 04:20:35;;;;;;;2.38;1.42;;;11.80;99.90;;;;;;5071443;28;20037;-64
2022/08/31 04:23:00;;;;;;;3.28;1.50;;;11.80;99.90;;;;;;5072489;28;20119;-65
2022/08/31 04:25:26;;;;;;;2.22;1.27;;;11.70;99.90;;;;;;5071462;28;20052;-65
2022/08/31 04:27:55;;;;;;;2.42;1.38;;;11.70;99.90;;;;;;5071076;28;20047;-65
2022/08/31 04:30:22;;;;;;;1.63;1.17;;;11.70;99.90;;;;;;5072453;28;20063;-65
2022/08/31 04:32:49;;;;;;;2.60;1.30;;;11.70;99.90;;;;;;5072387;28;20033;-65
2022/08/31 04:35:15;;;;;;;2.17;1.30;;;11.60;99.90;;;;;;5070994;28;20933;-65
2022/08/31 04:37:41;;;;;;;2.38;1.23;;;11.60;99.90;;;;;;5072491;28;20115;-65
2022/08/31 04:40:16;;;;;;;6.22;2.17;;;11.60;99.90;;;;;;5070953;28;20048;-65
2022/08/31 04:42:43;;;;;;;2.65;1.20;;;11.50;99.90;;;;;;5071210;28;20040;-65
2022/08/31 04:45:11;;;;;;;3.45;1.38;;;11.50;99.90;;;;;;5072245;28;20123;-65
2022/08/31 04:47:38;;;;;;;3.28;1.50;;;11.50;99.90;;;;;;5053679;28;20354;-65
2022/08/31 04:50:06;;;;;;;2.75;1.23;;;11.50;99.90;;;;;;5074513;28;20511;-65
2022/08/31 04:52:32;;;;;;;1.80;1.27;;;11.40;99.90;;;;;;5057956;28;20037;-65
2022/08/31 04:54:58;;;;;;;2.85;1.60;;;11.50;99.90;;;;;;5057847;28;20094;-64
2022/08/31 04:57:23;;;;;;;2.60;1.70;;;11.40;99.90;;;;;;5075874;28;20028;-65
2022/08/31 04:59:49;;;;;;;2.90;1.35;;;11.40;99.90;;;;;;5074834;28;20416;-64
2022/08/31 05:02:15;;;;;;;3.42;1.48;;;11.40;99.90;;;;;;5057743;28;20040;-64
2022/08/31 05:04:41;;;;;;;4.18;1.42;;;11.40;99.90;;;;;;5074336;28;20040;-65
2022/08/31 05:07:07;;;;;;;4.53;1.48;;;11.40;99.90;;;;;;5074347;28;20143;-65
2022/08/31 05:09:33;;;;;;;2.42;1.38;;;11.40;99.90;;;;;;5075678;28;20051;-64
2022/08/31 05:11:58;;;;;;;3.53;1.25;;;11.40;99.90;;;;;;5074352;28;20036;-64
2022/08/31 05:14:24;;;;;;;2.40;1.45;;;11.40;99.90;;;;;;5074348;28;20052;-64
2022/08/31 05:16:51;;;;;;;3.60;1.40;;;11.50;99.90;;;;;;5071961;28;20033;-64
2022/08/31 05:19:19;;;;;;;2.17;1.20;;;11.50;99.90;;;;;;5057500;28;20070;-64
2022/08/31 05:21:45;;;;;;;2.10;1.33;;;11.50;99.90;;;;;;5075425;28;20179;-65
2022/08/31 05:24:15;;;;;;;3.08;1.42;;;11.50;99.90;;;;;;5074333;28;20040;-65
2022/08/31 05:26:49;;;;;;;2.72;1.30;;;11.50;99.90;;;;;;5057444;28;20047;-65
2022/08/31 05:29:17;;;;;;;3.28;1.45;;;11.50;99.90;;;;;;5073959;28;20044;-65
2022/08/31 05:31:45;;;;;;;2.08;1.40;;;11.50;99.90;;;;;;5073861;28;20523;-65
2022/08/31 05:34:13;;;;;;;3.38;1.23;;;11.50;99.90;;;;;;5073820;28;20610;-65
2022/08/31 05:36:40;;;;;;;3.58;1.65;;;11.60;99.90;;;;;;5073885;28;20477;-65
2022/08/31 05:39:08;;;;;;;4.40;1.70;;;11.70;99.90;;;;;;5075208;28;20647;-65
2022/08/31 05:41:34;;;;;;;3.38;1.10;;;11.70;99.90;;;;;;5074262;28;20046;-65
2022/08/31 05:44:02;;;;;;;7.10;1.50;;;11.70;99.90;;;;;;5074998;28;20040;-65
2022/08/31 05:46:28;;;;;;;5.78;1.70;;;11.80;99.90;;;;;;5071759;28;20039;-65
2022/08/31 05:48:54;;;;;;;2.78;1.50;;;11.90;99.90;;;;;;5073925;28;20044;-65
2022/08/31 05:51:20;;;;;;;2.85;1.42;;;12.00;99.90;;;;;;5074925;28;20121;-65
2022/08/31 05:53:47;;;;;;;5.90;1.50;;;12.10;99.90;;;;;;5057179;28;20052;-65
2022/08/31 05:56:22;;;;;;;7.53;1.58;;;12.10;99.90;;;;;;5073856;28;20095;-65
2022/08/31 05:58:48;;;;;;;10.75;1.83;;;12.20;99.90;;;;;;5073481;28;20048;-65
2022/08/31 06:01:25;;;;;;;2.03;1.10;;;12.40;99.90;;;;;;5057028;28;20443;-65
2022/08/31 06:03:53;;;;;;;2.97;1.30;;;12.50;99.90;;;;;;5073440;28;20040;-65
2022/08/31 06:06:19;;;;;;;13.50;1.73;;;12.60;99.90;;;;;;5076310;28;20082;-65
2022/08/31 06:08:45;;;;;;;5.78;1.42;;;12.80;99.90;;;;;;5059748;28;20086;-65
2022/08/31 06:11:18;;;;;;;3.10;1.15;;;12.90;99.90;;;;;;5094516;28;20048;-65
2022/08/31 06:13:45;;;;;;;2.03;1.17;;;13.00;99.90;;;;;;5094543;28;20485;-65
2022/08/31 06:16:12;;;;;;;3.70;1.30;;;13.10;99.90;;;;;;5074120;28;20123;-64
2022/08/31 06:18:39;;;;;;;7.82;1.23;;;13.30;99.90;;;;;;5076474;28;20032;-65
2022/08/31 06:21:08;;;;;;;3.50;1.00;;;13.50;99.90;;;;;;5075183;28;20127;-65
2022/08/31 06:23:35;;;;;;;4.85;1.20;;;13.90;99.90;;;;;;5094130;28;20040;-65
2022/08/31 06:26:09;;;;;;;2.90;0.90;;;14.30;99.90;;;;;;5076423;28;20101;-65
2022/08/31 06:28:39;;;;;;;3.83;1.17;;;14.60;99.90;;;;;;5059626;28;20474;-65
2022/08/31 06:31:10;;;;;;;2.65;0.95;;;14.90;99.90;;;;;;5094271;28;20036;-65
2022/08/31 06:33:38;;;;;;;3.33;0.98;;;15.30;99.90;;;;;;5076452;28;20038;-65
2022/08/31 06:36:10;;;;;;;2.75;0.98;;;15.60;99.90;;;;;;5076017;28;20114;-65
2022/08/31 06:38:36;;;;;;;1.92;0.80;;;15.90;99.90;;;;;;5059311;28;20036;-65
2022/08/31 06:41:10;;;;;;;2.95;1.05;;;16.20;99.90;;;;;;5076292;28;20051;-65
2022/08/31 06:43:36;;;;;;;3.28;0.80;;;16.30;99.90;;;;;;5076072;28;20128;-66
2022/08/31 06:46:02;;;;;;;4.55;1.00;;;16.50;99.90;;;;;;5091755;28;20083;-65
2022/08/31 06:48:27;;;;;;;2.60;0.88;;;16.60;99.90;;;;;;5075754;28;20048;-65
2022/08/31 06:50:57;;;;;;;3.40;0.90;;;16.70;99.90;;;;;;5059226;28;20044;-66
2022/08/31 06:53:23;;;;;;;;;;;16.70;99.90;;;;;;5076464;28;20036;-65
2022/08/31 06:55:49;;;;;;;2.35;0.75;;;16.60;99.90;;;;;;5075539;28;19942;-65
2022/08/31 06:58:15;;;;;;;4.65;1.10;;;16.60;99.90;;;;;;5093769;28;20040;-65
2022/08/31 07:00:41;;;;;;;4.78;0.90;;;16.50;99.90;;;;;;5075677;28;20036;-66
2022/08/31 07:03:23;;;;;;;1.70;0.77;;;16.30;99.90;;;;;;5058927;28;20086;-67
2022/08/31 07:05:51;;;;;;;2.10;1.00;;;16.20;99.90;;;;;;5075728;28;20036;-65
2022/08/31 07:08:18;;;;;;;1.63;0.80;;;16.20;99.90;;;;;;5075385;28;20067;-66
2022/08/31 07:10:45;;;;;;;1.60;0.90;;;16.10;99.90;;;;;;5093208;28;20043;-66
2022/08/31 07:13:11;;;;;;;2.15;0.77;;;16.10;99.90;;;;;;5075412;28;20073;-66
2022/08/31 07:15:37;;;;;;;2.40;0.63;;;16.10;99.90;;;;;;5091338;28;20097;-65
2022/08/31 07:18:03;;;;;;;1.70;0.77;;;16.20;99.90;;;;;;5075294;28;20447;-67
2022/08/31 07:20:29;;;;;;;4.20;0.88;;;16.20;99.90;;;;;;5093681;28;20072;-66
2022/08/31 07:22:56;;;;;;;4.55;1.00;;;16.20;99.90;;;;;;5093326;28;20067;-66
2022/08/31 07:25:22;;;;;;;3.83;0.80;;;16.30;99.90;;;;;;5075437;28;20105;-66
2022/08/31 07:27:54;;;;;;;3.47;1.00;;;16.40;99.90;;;;;;5093443;28;20031;-66
2022/08/31 07:30:24;;;;;;;7.50;1.05;;;16.40;99.90;;;;;;5074965;28;20059;-66
2022/08/31 07:32:50;;;;;;;4.10;0.98;;;16.50;99.90;;;;;;5058240;28;20039;-67
2022/08/31 07:35:17;;;;;;;1.63;0.60;;;16.50;99.90;;;;;;5075393;28;20609;-66
2022/08/31 07:43:16;;;;;;;2.40;0.40;;;16.80;99.90;;;;;;5093329;28;20127;-67
2022/08/31 07:45:42;;;;;;;3.15;0.68;;;16.90;99.90;;;;;;5072769;28;20150;-67
2022/08/31 07:48:08;;;;;;;2.97;0.60;;;17.00;99.90;;;;;;5075162;28;20043;-66
2022/08/31 07:50:36;;;;;;;1.85;0.60;;;17.10;99.90;;;;;;5058339;28;20059;-68
2022/08/31 07:53:02;;;;;;;2.03;0.90;;;17.20;99.90;;;;;;5074984;28;20036;-67
2022/08/31 07:55:28;;;;;;;3.60;1.52;;;17.30;99.90;;;;;;5075035;28;20032;-67
2022/08/31 07:57:55;;;;;;;3.53;0.70;;;17.50;99.90;;;;;;5075058;28;20100;-67
2022/08/31 08:00:27;;;;;;;5.53;0.70;;;17.70;99.90;;;;;;5074654;28;20040;-66
2022/08/31 08:02:53;;;;;;;3.55;0.82;;;17.90;99.90;;;;;;5075093;28;20135;-67
2022/08/31 08:05:24;;;;;;;1.85;0.80;;;18.20;99.90;;;;;;5058326;28;20040;-67
2022/08/31 08:07:53;;;;;;;1.95;0.70;;;18.60;99.90;;;;;;5074513;28;20087;-67
2022/08/31 08:10:22;;;;;;;3.43;0.63;;;19.10;99.90;;;;;;5074575;28;20144;-68
2022/08/31 08:13:01;;;;;;;2.63;0.60;;;19.40;99.90;;;;;;5092988;28;20037;-67
2022/08/31 08:15:28;;;;;;;2.77;0.60;;;19.70;99.90;;;;;;5091094;28;20051;-69
2022/08/31 08:17:54;;;;;;;2.88;0.70;;;20.00;99.90;;;;;;5092801;28;20032;-67
2022/08/31 08:20:21;;;;;;;6.20;0.68;;;20.10;99.90;;;;;;5092616;28;20044;-69
2022/08/31 08:22:47;;;;;;;3.63;0.68;;;20.40;99.90;;;;;;5094663;28;20510;-67
2022/08/31 08:25:14;;;;;;;4.22;0.60;;;20.50;99.90;;;;;;5096805;28;20040;-67
2022/08/31 08:27:41;;;;;;;2.85;0.80;;;20.60;99.90;;;;;;5078772;28;20071;-68
2022/08/31 08:30:13;;;;;;;1.58;0.63;;;20.70;99.90;;;;;;5078303;28;20131;-68
2022/08/31 08:32:43;;;;;;;3.22;0.90;;;20.90;99.90;;;;;;5078390;28;20036;-69
2022/08/31 08:35:09;;;;;;;;;;;21.10;99.90;;;;;;5078863;28;20044;-67
2022/08/31 08:37:41;;;;;;;2.83;0.80;;;21.40;99.90;;;;;;5096295;28;19915;-68
2022/08/31 08:40:24;;;;;;;1.75;0.70;;;21.70;99.90;;;;;;5078560;28;20388;-68
2022/08/31 08:42:50;;;;;;;1.92;0.70;;;21.80;99.40;;;;;;5078437;28;20438;-69
2022/08/31 08:45:16;;;;;;;0.98;0.45;;;21.90;98.10;;;;;;5078412;28;20052;-67
2022/08/31 08:47:43;;;;;;;1.90;0.60;;;22.00;98.10;;;;;;5094029;28;20399;-68
2022/08/31 08:50:09;;;;;;;2.08;0.82;;;22.20;97.80;;;;;;5096411;28;20040;-67
2022/08/31 08:52:40;;;;;;;10.90;0.85;;;22.50;97.90;;;;;;5078324;28;20089;-71
2022/08/31 08:55:17;;;;;;;6.70;0.93;;;22.80;96.80;;;;;;5078075;28;20039;-68
2022/08/31 08:57:45;;;;;;;2.78;0.70;;;22.90;96.30;;;;;;5096350;28;20535;-67
2022/08/31 09:00:23;;;;;;;1.52;0.50;;;23.20;96.10;;;;;;5096409;28;20444;-67
2022/08/31 09:02:59;;;;;;;18.00;1.20;;;23.50;94.20;;;;;;5078014;28;20476;-68
2022/08/31 09:05:43;;;;;;;12.48;1.17;;;23.60;93.70;;;;;;5096205;28;20051;-67
2022/08/31 09:08:31;;;;;;;1.77;0.68;;;23.60;93.80;;;;;;5095792;28;20063;-67
2022/08/31 09:11:25;;;;;;;5.60;0.70;;;23.80;92.80;;;;;;5077876;28;20048;-67
2022/08/31 09:14:09;;;;;;;2.30;0.50;;;23.90;92.20;;;;;;5077870;28;20093;-67
2022/08/31 09:16:43;;;;;;;3.55;0.40;;;24.00;91.30;;;;;;5075674;28;20690;-68
2022/08/31 09:19:13;;;;;;;5.70;0.70;;;24.00;90.40;;;;;;5096365;28;20039;-66
2022/08/31 09:21:52;;;;;;;0.68;0.35;;;24.10;89.50;;;;;;5078182;28;20117;-68
2022/08/31 09:24:21;;;;;;;3.92;0.80;;;24.10;85.40;;;;;;5061061;28;20093;-68
2022/08/31 09:27:01;;;;;;;2.80;0.57;;;24.20;86.30;;;;;;5077660;28;20109;-67
2022/08/31 09:29:30;;;;;;;2.58;0.30;;;24.40;87.30;;;;;;5095680;28;20097;-65
2022/08/31 09:32:05;;;;;;;2.73;0.43;;;24.60;85.30;;;;;;5077400;28;20086;-64
2022/08/31 09:34:37;;;;;;;2.17;0.60;;;24.60;83.70;;;;;;5076921;28;20036;-68
2022/08/31 09:37:13;;;;;;;1.27;0.80;;;24.60;79.40;;;;;;5077488;28;20059;-64
2022/08/31 09:39:40;;;;;;;1.92;0.43;;;24.50;81.10;;;;;;5060456;28;20047;-66
2022/08/31 09:42:29;;;;;;;6.80;0.63;;;24.70;82.50;;;;;;5095507;28;20040;-65
2022/08/31 09:45:01;;;;;;;3.72;0.90;;;24.80;81.80;;;;;;5095568;28;20074;-66
2022/08/31 09:47:47;;;;;;;3.03;0.77;;;24.90;80.70;;;;;;5075206;28;20075;-65
2022/08/31 09:50:31;;;;;;;4.55;0.63;;;25.20;81.70;;;;;;5077050;28;20047;-65
2022/08/31 09:56:06;;;;;;;12.38;0.82;;;25.60;79.50;;;;;;5094271;28;20041;-65
2022/08/31 09:58:32;;;;;;;2.50;0.70;;;25.80;76.90;;;;;;5059898;28;20044;-66
2022/08/31 10:01:11;;;;;;;4.18;1.10;;;25.70;75.30;;;;;;5076735;28;20523;-65
2022/08/31 10:03:43;;;;;;;2.03;0.80;;;25.80;76.30;;;;;;5095056;28;20050;-65
2022/08/31 10:06:29;;;;;;;1.60;0.70;;;26.00;75.50;;;;;;5076149;28;20047;-66
2022/08/31 10:09:03;;;;;;;1.52;0.40;;;26.20;74.80;;;;;;5094822;28;20521;-66
2022/08/31 10:11:33;;;;;;;2.10;0.50;;;26.50;72.80;;;;;;5075404;28;20036;-65
2022/08/31 10:14:06;;;;;;;3.45;0.60;;;26.50;73.20;;;;;;5075556;28;20093;-66
2022/08/31 10:16:39;;;;;;;3.58;0.60;;;26.60;71.20;;;;;;5072992;28;20039;-67
2022/08/31 10:19:27;;;;;;;2.28;0.40;;;26.40;68.00;;;;;;5075504;28;20028;-68
2022/08/31 10:22:00;;;;;;;3.65;0.43;;;26.20;67.80;;;;;;5075439;28;20036;-68
2022/08/31 10:24:51;;;;;;;2.45;0.47;;;26.20;70.30;;;;;;5075582;28;20187;-65
2022/08/31 10:27:37;;;;;;;1.25;0.38;;;26.00;66.40;;;;;;5093234;28;20047;-66
2022/08/31 10:30:22;;;;;;;5.82;0.68;;;26.10;68.20;;;;;;5075331;28;20082;-66
2022/08/31 10:33:04;;;;;;;2.70;0.70;;;26.20;68.20;;;;;;5075378;28;20320;-65
2022/08/31 10:35:41;;;;;;;1.48;0.55;;;26.40;70.10;;;;;;5075019;28;20137;-65
2022/08/31 10:38:35;;;;;;;3.85;0.52;;;26.70;69.20;;;;;;5074936;28;20079;-66
2022/08/31 10:41:17;;;;;;;0.90;0.60;;;26.90;68.90;;;;;;5071891;28;20500;-65
2022/08/31 10:43:52;;;;;;;1.63;0.95;;;27.30;68.70;;;;;;5074980;28;20042;-65
2022/08/31 10:46:18;;;;;;;3.08;0.77;;;27.50;68.30;;;;;;5072018;28;20048;-65
2022/08/31 10:48:53;;;;;;;2.08;0.40;;;27.60;68.00;;;;;;5093419;28;20504;-65
2022/08/31 10:51:47;;;;;;;2.40;0.50;;;27.80;67.50;;;;;;5057969;28;20040;-65
2022/08/31 10:54:35;;;;;;;4.22;0.65;;;27.90;63.50;;;;;;5058366;28;20122;-65
2022/08/31 10:57:04;;;;;;;1.73;0.43;;;27.70;66.60;;;;;;5058164;28;20094;-65
2022/08/31 10:59:48;;;;;;;1.23;0.40;;;27.90;66.00;;;;;;5093893;28;20036;-66
2022/08/31 11:02:20;;;;;;;3.92;0.50;;;27.90;63.60;;;;;;5075418;28;20072;-67
2022/08/31 11:05:15;;;;;;;2.25;0.60;;;27.60;61.40;;;;;;5058745;28;20047;-67
2022/08/31 11:07:56;;;;;;;7.72;1.50;;;27.40;62.40;;;;;;5074356;28;20055;-68
2022/08/31 11:10:38;;;;;;;2.72;0.50;;;27.20;60.70;;;;;;5074375;28;20044;-66
2022/08/31 11:13:16;;;;;;;1.65;0.40;;;27.00;57.40;;;;;;5074621;28;20396;-66
2022/08/31 11:16:16;;;;;;;2.53;1.00;;;26.80;59.60;;;;;;5055270;28;20266;-67
2022/08/31 11:18:55;;;;;;;3.13;0.75;;;26.60;58.80;;;;;;5092615;28;20088;-66
2022/08/31 11:21:53;;;;;;;3.35;0.60;;;26.50;60.10;;;;;;5092758;28;20047;-67
2022/08/31 11:25:13;;;;;;;0.90;0.40;;;26.40;61.30;;;;;;5074453;28;20047;-67
2022/08/31 11:27:58;;;;;;;2.53;0.43;;;26.20;61.40;;;;;;4990331;28;20049;-66
2022/08/31 11:30:30;;;;;;;1.98;0.52;;;26.00;60.00;;;;;;4973988;28;20043;-66
2022/08/31 11:33:06;;;;;;;3.17;0.70;;;25.90;60.70;;;;;;5056206;28;20443;-65
2022/08/31 11:36:13;;;;;;;2.53;0.60;;;26.10;59.10;;;;;;5073940;28;20051;-67
2022/08/31 11:38:55;;;;;;;2.60;0.60;;;26.10;60.50;;;;;;5073246;28;20078;-65
2022/08/31 11:41:30;;;;;;;0.98;0.30;;;26.20;59.80;;;;;;5074142;28;20177;-65
2022/08/31 11:43:56;;;;;;;0.77;0.40;;;26.40;60.00;;;;;;5073971;28;20044;-66
2022/08/31 11:46:24;;;;;;;3.00;0.70;;;26.40;58.70;;;;;;5071766;28;20067;-67
2022/08/31 11:48:50;;;;;;;3.77;0.60;;;26.40;59.80;;;;;;5073908;28;20047;-65
2022/08/31 11:51:45;;;;;;;2.45;0.40;;;26.60;60.30;;;;;;5073683;28;20051;-67
2022/08/31 11:54:44;;;;;;;1.95;0.60;;;26.80;59.30;;;;;;5092103;28;20047;-68
2022/08/31 11:57:14;;;;;;;2.30;0.52;;;26.50;58.10;;;;;;5073748;28;20399;-65
2022/08/31 11:59:47;;;;;;;1.60;0.60;;;26.10;58.60;;;;;;5073841;28;20047;-65
2022/08/31 12:02:20;;;;;;;1.17;0.47;;;25.80;57.90;;;;;;5073913;28;20085;-67
2022/08/31 12:04:50;;;;;;;6.70;0.45;;;25.60;59.70;;;;;;5074021;28;20072;-67
2022/08/31 12:07:23;;;;;;;1.63;0.65;;;25.50;58.50;;;;;;5070275;28;20048;-69
2022/08/31 12:10:16;;;;;;;1.98;0.57;;;25.50;57.40;;;;;;5071553;28;20143;-67
2022/08/31 12:13:06;;;;;;;1.83;0.73;;;25.30;58.20;;;;;;5054322;28;20404;-68
2022/08/31 12:15:59;;;;;;;1.45;0.50;;;25.10;59.60;;;;;;5068657;28;20404;-67
2022/08/31 12:18:47;;;;;;;0.90;0.40;;;25.10;59.60;;;;;;5053836;28;20045;-68
2022/08/31 12:24:37;;;;;;;4.57;0.43;;;24.90;60.40;;;;;;5070164;28;20076;-67
2022/08/31 12:27:21;;;;;;;0.93;0.45;;;24.90;61.70;;;;;;5071622;28;20037;-68
2022/08/31 12:29:48;;;;;;;2.38;0.70;;;24.80;60.30;;;;;;5071472;28;20046;-67
2022/08/31 12:33:07;;;;;;;3.20;0.60;;;24.70;61.60;;;;;;5071381;28;20497;-66
2022/08/31 12:35:33;;;;;;;2.50;0.40;;;24.90;63.40;;;;;;5045431;28;20162;-67
2022/08/31 12:38:00;;;;;;;1.80;0.30;;;25.00;61.10;;;;;;5071476;28;20120;-67
2022/08/31 12:40:31;;;;;;;2.10;0.30;;;25.10;59.20;;;;;;5053350;28;20079;-65
2022/08/31 12:42:59;;;;;;;1.63;0.60;;;25.10;59.00;;;;;;5070048;28;20048;-66
2022/08/31 12:45:48;;;;;;;3.92;0.38;;;25.20;57.70;;;;;;5069628;28;20439;-67
2022/08/31 12:48:23;;;;;;;2.58;0.93;;;25.10;58.20;;;;;;5070221;28;20040;-64
2022/08/31 12:51:03;;;;;;;2.53;0.40;;;24.90;57.10;;;;;;5069988;28;20052;-66
2022/08/31 12:53:44;;;;;;;1.20;0.60;;;24.70;58.10;;;;;;5071158;28;20064;-65
2022/08/31 12:56:20;;;;;;;2.80;0.63;;;24.50;57.90;;;;;;5070170;28;20247;-68
2022/08/31 12:59:04;;;;;;;3.38;0.60;;;24.50;57.40;;;;;;5071281;28;20036;-66
2022/08/31 13:01:30;;;;;;;2.33;0.50;;;24.40;58.60;;;;;;5069735;28;20127;-66
2022/08/31 13:04:00;;;;;;;2.20;0.60;;;24.40;59.00;;;;;;5068133;28;20486;-66
2022/08/31 13:06:27;;;;;;;1.40;0.75;;;24.30;58.10;;;;;;5053488;28;20060;-66
2022/08/31 13:08:54;;;;;;;1.27;0.40;;;24.20;58.50;;;;;;5071958;28;20127;-67
2022/08/31 13:11:25;;;;;;;5.93;0.60;;;24.20;59.00;;;;;;5074421;28;20497;-67
2022/08/31 13:13:53;;;;;;;29.23;3.05;;;24.10;59.80;;;;;;5074648;28;20093;-67
2022/08/31 13:16:20;;;;;;;1.95;0.52;;;24.10;60.00;;;;;;5072108;28;20523;-65
2022/08/31 13:18:46;;;;;;;1.65;0.45;;;24.10;58.20;;;;;;5074408;28;20036;-66
2022/08/31 13:21:20;;;;;;;1.23;0.40;;;24.10;58.80;;;;;;5073421;28;20492;-66
2022/08/31 13:23:47;;;;;;;1.60;0.65;;;24.10;59.40;;;;;;5074586;28;20078;-67